Time;durP1;ratioP1;P1;durP2;ratioP2;P2;SDS_P1;SDS_P2;PMS_P1;PMS_P2;Temp;Humidity;BMP_temperature;BMP_pressure;BME280_temperature;BME280_humidity;BME280_pressure;Samples;Min_cycle;Max_cycle;Signal;HPM_P1;HPM_P2
2022/09/20 05:34:53;;;;;;;;;2.00;2.00;;;;;20.03;48.84;102130.38;5051494;27;45770;-82
2022/09/20 05:37:49;;;;;;;;;2.00;2.00;;;;;20.19;49.63;102128.25;5044409;28;45390;-75
2022/09/20 05:40:52;;;;;;;;;1.00;1.00;;;;;20.47;49.65;102125.38;5044632;28;45579;-76
2022/09/20 05:43:29;;;;;;;;;10.33;5.33;;;;;20.82;49.89;102129.94;5043577;28;45490;-75
2022/09/20 05:46:26;;;;;;;;;8.67;5.67;;;;;21.16;49.39;102126.50;5056284;28;46151;-74
2022/09/20 05:49:04;;;;;;;;;7.33;5.00;;;;;21.49;49.10;102124.84;5046831;28;45809;-74
2022/09/20 05:51:39;;;;;;;;;9.67;5.00;;;;;21.81;48.52;102117.88;5046522;28;45380;-74
2022/09/20 05:54:33;;;;;;;;;7.33;6.00;;;;;22.12;47.66;102118.13;5050660;28;45736;-73
2022/09/20 05:57:11;;;;;;;;;13.00;7.00;;;;;22.40;47.61;102117.66;5033886;28;46345;-72
2022/09/20 05:59:56;;;;;;;;;7.33;5.00;;;;;22.61;47.02;102106.94;5031260;28;45538;-73
2022/09/20 06:02:40;;;;;;;;;8.67;5.67;;;;;22.86;46.92;102116.53;5047033;28;45812;-73
2022/09/20 06:05:23;;;;;;;;;5.00;4.33;;;;;23.09;46.46;102119.09;5049286;28;45515;-74
2022/09/20 06:07:53;;;;;;;;;7.33;4.33;;;;;23.28;46.44;102120.22;5046749;28;47115;-71
2022/09/20 06:11:09;;;;;;;;;5.67;5.67;;;;;23.51;45.84;102133.66;5043704;28;45461;-76
2022/09/20 06:14:02;;;;;;;;;8.00;5.00;;;;;23.70;44.33;102135.56;5022741;28;45383;-73
2022/09/20 06:17:05;;;;;;;;;7.33;5.67;;;;;23.83;44.19;102138.06;5021020;28;45955;-73
2022/09/20 06:19:44;;;;;;;;;6.67;5.00;;;;;23.95;43.70;102131.53;5040406;28;45431;-71
2022/09/20 06:22:37;;;;;;;;;7.33;3.67;;;;;24.05;43.60;102139.72;5031588;28;45555;-76
2022/09/20 06:25:08;;;;;;;;;5.33;3.00;;;;;24.16;43.61;102151.47;5023466;28;45582;-72
2022/09/20 06:27:57;;;;;;;;;5.00;3.00;;;;;24.25;43.26;102147.94;5019773;28;45689;-72
2022/09/20 06:30:30;;;;;;;;;5.00;4.33;;;;;24.31;43.11;102141.06;5028568;28;45669;-72
2022/09/20 06:33:09;;;;;;;;;8.67;3.67;;;;;24.38;42.95;102142.25;5022674;28;45468;-72
2022/09/20 06:35:40;;;;;;;;;4.33;2.67;;;;;24.45;42.96;102145.25;5027248;28;45543;-73
2022/09/20 06:43:40;;;;;;;;;6.00;4.00;;;;;24.60;42.06;102138.41;5034478;28;45911;-72
2022/09/20 06:46:06;;;;;;;;;6.00;3.33;;;;;24.61;42.10;102140.09;5032392;28;46014;-72
2022/09/20 06:48:31;;;;;;;;;5.00;4.00;;;;;24.66;42.28;102147.84;5036332;28;45683;-75
2022/09/20 06:50:57;;;;;;;;;4.33;4.00;;;;;24.69;42.12;102152.97;5036773;28;45399;-76
2022/09/20 06:53:31;;;;;;;;;6.00;4.33;;;;;24.75;42.45;102154.25;5036504;28;45590;-75
2022/09/20 06:55:58;;;;;;;;;6.33;4.33;;;;;24.80;42.03;102157.41;5050475;28;45425;-74
2022/09/20 06:58:23;;;;;;;;;6.00;5.00;;;;;24.83;42.15;102159.88;5048919;28;45403;-74
2022/09/20 07:00:49;;;;;;;;;5.00;5.00;;;;;24.85;41.97;102155.16;5045524;28;45569;-75
2022/09/20 07:03:14;;;;;;;;;3.33;3.33;;;;;24.86;41.97;102156.84;5036461;28;56294;-75
2022/09/20 07:05:40;;;;;;;;;6.33;5.00;;;;;24.93;41.96;102145.44;5049704;28;45332;-75
2022/09/20 07:08:05;;;;;;;;;4.00;4.00;;;;;24.96;42.19;102146.00;5046344;28;45462;-75
2022/09/20 07:10:31;;;;;;;;;5.00;3.67;;;;;25.00;41.48;102143.84;5037315;28;46099;-76
2022/09/20 07:12:58;;;;;;;;;5.67;3.67;;;;;25.05;41.81;102148.84;5038761;28;45700;-73
2022/09/20 07:15:24;;;;;;;;;5.00;3.00;;;;;25.08;41.50;102152.13;5028842;28;45517;-74
2022/09/20 07:17:49;;;;;;;;;7.00;3.00;;;;;25.15;41.72;102156.97;5045681;28;45560;-72
2022/09/20 07:20:15;;;;;;;;;5.33;3.33;;;;;25.21;41.55;102145.50;5040908;28;46346;-73
2022/09/20 07:22:40;;;;;;;;;0.33;0.33;;;;;25.29;41.25;102150.25;5046663;28;45538;-74
2022/09/20 07:25:06;;;;;;;;;4.33;3.33;;;;;25.35;41.18;102149.66;5022541;28;45618;-75
2022/09/20 07:27:32;;;;;;;;;4.00;4.00;;;;;25.39;41.12;102149.19;5044053;28;45543;-73
2022/09/20 07:29:57;;;;;;;;;3.33;2.00;;;;;25.45;41.08;102145.03;5036674;28;45555;-73
2022/09/20 07:32:22;;;;;;;;;2.33;2.33;;;;;25.48;40.69;102147.47;5035170;28;45459;-73
2022/09/20 07:34:48;;;;;;;;;5.00;3.33;;;;;25.52;41.23;102151.63;5039666;28;45495;-72
2022/09/20 07:37:16;;;;;;;;;2.67;2.67;;;;;25.53;40.81;102155.16;5043150;28;45693;-75
2022/09/20 07:39:41;;;;;;;;;4.00;4.00;;;;;25.53;40.65;102163.31;5041062;28;45457;-75
2022/09/20 07:42:06;;;;;;;;;2.33;2.33;;;;;25.50;40.65;102156.31;5037900;28;45361;-74
2022/09/20 07:44:32;;;;;;;;;2.00;2.00;;;;;25.50;40.42;102158.19;5035629;28;45287;-75
2022/09/20 07:46:59;;;;;;;;;4.67;3.33;;;;;25.51;40.81;102165.34;5042139;28;45419;-74
2022/09/20 07:49:26;;;;;;;;;2.00;2.00;;;;;25.49;40.54;102167.34;5041942;28;46227;-74
2022/09/20 07:51:52;;;;;;;;;4.33;3.33;;;;;25.48;40.29;102165.63;5040497;28;45955;-75
2022/09/20 07:54:19;;;;;;;;;2.00;2.00;;;;;25.49;40.51;102170.94;5041778;28;45415;-74
2022/09/20 07:56:45;;;;;;;;;4.00;1.33;;;;;25.50;40.50;102174.50;5034461;28;45455;-74
2022/09/20 07:59:11;;;;;;;;;2.00;2.00;;;;;25.53;40.55;102182.34;5082587;22;46449;-74
2022/09/20 08:01:37;;;;;;;;;2.67;2.67;;;;;25.55;40.41;102180.41;5015476;28;45760;-74
2022/09/20 08:04:04;;;;;;;;;3.00;2.00;;;;;25.59;39.96;102186.38;5008847;28;45427;-74
2022/09/20 08:06:29;;;;;;;;;5.33;3.00;;;;;25.61;39.89;102193.38;5015284;28;45815;-73
2022/09/20 08:08:55;;;;;;;;;3.00;3.00;;;;;25.61;40.12;102187.09;5015509;28;46001;-73
2022/09/20 08:11:24;;;;;;;;;4.00;3.00;;;;;25.62;40.06;102191.50;5015834;28;45403;-74
2022/09/20 08:13:51;;;;;;;;;1.33;1.33;;;;;25.61;40.06;102193.38;5014000;28;45891;-73
2022/09/20 08:16:18;;;;;;;;;3.00;3.00;;;;;25.63;40.05;102195.97;5015427;28;45454;-75
2022/09/20 08:18:58;;;;;;;;;2.00;2.00;;;;;25.62;39.94;102195.09;5011183;28;46194;-75
2022/09/20 08:21:26;;;;;;;;;3.00;3.00;;;;;25.63;40.20;102194.09;5015222;28;45725;-76
2022/09/20 08:23:52;;;;;;;;;3.00;3.00;;;;;25.64;40.13;102189.50;5012447;28;45408;-75
2022/09/20 08:26:20;;;;;;;;;3.67;3.67;;;;;25.65;39.62;102199.38;5013250;28;45448;-71
2022/09/20 08:28:51;;;;;;;;;0.33;0.33;;;;;25.64;39.74;102203.97;5014474;28;46721;-73
2022/09/20 08:31:20;;;;;;;;;4.33;1.00;;;;;25.62;39.99;102197.81;5015027;28;45773;-72
2022/09/20 08:33:48;;;;;;;;;8.33;2.67;;;;;25.58;40.51;102201.81;5028713;28;45524;-75
2022/09/20 08:36:16;;;;;;;;;3.00;2.33;;;;;25.56;40.33;102212.00;5015698;28;45439;-76
2022/09/20 08:38:42;;;;;;;;;3.67;3.67;;;;;25.53;40.62;102209.53;5014263;28;45425;-76
2022/09/20 08:41:11;;;;;;;;;4.00;3.00;;;;;25.51;40.53;102215.13;5011745;28;45357;-73
2022/09/20 08:43:41;;;;;;;;;4.00;3.67;;;;;25.52;40.57;102215.97;5010379;28;45531;-74
2022/09/20 08:46:13;;;;;;;;;3.00;3.00;;;;;25.55;40.87;102221.16;5013350;28;45619;-75
2022/09/20 08:48:39;;;;;;;;;3.00;2.00;;;;;25.58;40.86;102222.75;5013673;28;46384;-75
2022/09/20 08:51:05;;;;;;;;;3.67;3.67;;;;;25.58;41.00;102220.03;5008596;28;45601;-75
2022/09/20 08:53:31;;;;;;;;;5.67;3.00;;;;;25.60;40.97;102212.56;5012031;28;45639;-75
2022/09/20 08:55:58;;;;;;;;;3.00;3.00;;;;;25.62;41.45;102216.84;5013475;28;45571;-72
2022/09/20 08:58:25;;;;;;;;;2.00;2.00;;;;;25.65;41.29;102219.28;5013610;28;46090;-73
2022/09/20 09:00:51;;;;;;;;;3.33;3.33;;;;;25.67;41.40;102216.41;5013380;28;45503;-73
2022/09/20 09:03:17;;;;;;;;;5.67;2.67;;;;;25.65;41.37;102211.13;5014104;28;45432;-72
2022/09/20 09:05:49;;;;;;;;;4.67;3.00;;;;;25.65;41.22;102219.28;5014168;28;45603;-72
2022/09/20 09:08:20;;;;;;;;;3.00;2.00;;;;;25.65;41.48;102215.69;5023700;28;47244;-72
2022/09/20 09:10:53;;;;;;;;;5.00;3.00;;;;;25.65;41.43;102213.84;5007210;28;45458;-74
2022/09/20 09:13:30;;;;;;;;;3.00;3.00;;;;;25.68;41.45;102218.13;5013122;28;45416;-74
2022/09/20 09:16:05;;;;;;;;;3.33;2.00;;;;;25.68;41.63;102219.97;5015038;28;45378;-74
2022/09/20 09:18:38;;;;;;;;;3.67;2.33;;;;;25.65;41.52;102213.84;5012094;28;46114;-74
2022/09/20 09:21:06;;;;;;;;;6.00;3.00;;;;;25.69;41.26;102221.69;5012253;28;45624;-76
2022/09/20 09:23:40;;;;;;;;;4.33;2.67;;;;;25.72;40.03;102218.69;5014076;28;45392;-73
2022/09/20 09:26:35;;;;;;;;;3.67;3.00;;;;;25.71;40.27;102223.25;5013688;28;45531;-73
2022/09/20 09:29:17;;;;;;;;;3.33;3.33;;;;;25.70;40.37;102216.09;5013694;28;45505;-79
2022/09/20 09:31:45;;;;;;;;;3.33;3.33;;;;;25.71;40.37;102222.41;5012056;28;45562;-72
2022/09/20 09:34:28;;;;;;;;;3.67;3.67;;;;;25.69;40.08;102219.84;5009276;28;45809;-73
2022/09/20 09:36:54;;;;;;;;;3.33;2.33;;;;;25.70;40.51;102221.53;5013354;28;45479;-74
2022/09/20 09:39:25;;;;;;;;;3.33;3.33;;;;;25.70;40.45;102220.69;5010351;28;45570;-73
2022/09/20 09:41:51;;;;;;;;;4.00;3.33;;;;;25.68;40.88;102222.69;5006304;28;45393;-73
2022/09/20 09:44:26;;;;;;;;;3.00;1.67;;;;;25.65;40.84;102222.00;5012657;28;45348;-74
2022/09/20 09:46:53;;;;;;;;;4.67;4.00;;;;;25.66;40.58;102222.84;5013499;28;45362;-74
2022/09/20 09:49:34;;;;;;;;;4.33;2.00;;;;;25.68;40.67;102218.13;5009328;28;47059;-74
2022/09/20 09:52:05;;;;;;;;;4.00;4.00;;;;;25.68;40.67;102218.13;5009180;28;45783;-73
2022/09/20 09:54:35;;;;;;;;;3.33;3.33;;;;;25.71;40.39;102225.13;5000736;28;45624;-74
2022/09/20 09:57:16;;;;;;;;;2.00;2.00;;;;;25.79;38.93;102219.81;5008196;28;45721;-73
2022/09/20 10:00:10;;;;;;;;;4.33;4.00;;;;;25.86;39.11;102220.06;5009731;28;46580;-77
2022/09/20 10:02:54;;;;;;;;;4.00;4.00;;;;;25.88;39.23;102221.63;5012501;28;45566;-76
2022/09/20 10:05:44;;;;;;;;;4.67;4.00;;;;;25.92;38.44;102217.59;5011751;28;45317;-73
2022/09/20 10:08:21;;;;;;;;;2.33;2.33;;;;;25.91;38.86;102213.16;5013630;28;45396;-72
2022/09/20 10:11:02;;;;;;;;;3.67;3.67;;;;;25.93;38.21;102218.47;5012748;28;45503;-73
2022/09/20 10:13:40;;;;;;;;;3.00;3.00;;;;;25.93;38.87;102215.75;4999017;28;45487;-72
2022/09/20 10:16:19;;;;;;;;;6.00;4.67;;;;;25.97;38.50;102210.84;5013201;28;45431;-74
2022/09/20 10:19:11;;;;;;;;;4.67;4.67;;;;;25.95;38.50;102202.84;5014062;28;45698;-73
2022/09/20 10:21:52;;;;;;;;;2.67;2.00;;;;;25.99;38.41;102217.03;5015986;28;46545;-73
2022/09/20 10:24:43;;;;;;;;;3.00;3.00;;;;;26.00;38.20;102210.56;5011198;28;45472;-73
2022/09/20 10:27:27;;;;;;;;;2.67;2.67;;;;;25.96;37.83;102211.88;5015660;28;45600;-74
2022/09/20 10:30:13;;;;;;;;;3.67;3.00;;;;;25.88;38.53;102201.75;5004163;28;45396;-75
2022/09/20 10:33:23;;;;;;;;;4.00;4.00;;;;;25.79;38.70;102198.06;4998367;28;45848;-77
2022/09/20 10:36:23;;;;;;;;;3.00;2.67;;;;;25.70;38.67;102198.94;5005375;28;45436;-76
2022/09/20 10:38:54;;;;;;;;;3.33;3.33;;;;;25.68;38.61;102209.97;4987005;28;45645;-73
2022/09/20 10:44:19;;;;;;;;;4.33;4.33;;;;;25.78;38.37;102209.91;4993195;28;45522;-73
2022/09/20 10:47:01;;;;;;;;;5.33;4.33;;;;;25.83;38.24;102206.78;4993319;28;45472;-74
2022/09/20 10:49:35;;;;;;;;;4.00;4.00;;;;;25.85;38.41;102204.75;4991846;28;45492;-73
2022/09/20 10:52:43;;;;;;;;;3.67;2.33;;;;;25.89;38.43;102208.88;4994923;28;45440;-73
2022/09/20 10:55:25;;;;;;;;;4.00;4.00;;;;;25.91;37.92;102207.72;4990646;28;45592;-73
2022/09/20 10:58:12;;;;;;;;;3.33;3.33;;;;;25.92;38.08;102209.44;4992881;28;45469;-73
2022/09/20 11:01:03;;;;;;;;;5.33;3.33;;;;;25.92;37.91;102201.28;4982096;28;47230;-73
2022/09/20 11:03:46;;;;;;;;;5.00;3.00;;;;;25.87;38.31;102203.59;4970462;28;45536;-74
2022/09/20 11:06:12;;;;;;;;;3.00;3.00;;;;;25.82;38.27;102199.63;4972954;28;46542;-76
2022/09/20 11:08:39;;;;;;;;;3.33;3.33;;;;;25.77;38.57;102192.78;4967999;28;45560;-75
2022/09/20 11:11:11;;;;;;;;;2.00;2.00;;;;;25.74;38.67;102198.50;4956726;28;45435;-77
2022/09/20 11:13:56;;;;;;;;;6.00;3.67;;;;;25.74;38.85;102193.06;4972923;28;45501;-76
2022/09/20 11:16:24;;;;;;;;;4.67;4.00;;;;;25.75;38.54;102193.91;4972959;28;45507;-75
2022/09/20 11:18:57;;;;;;;;;4.00;4.00;;;;;25.76;38.71;102193.75;4967963;28;45538;-76
2022/09/20 11:21:33;;;;;;;;;4.00;4.00;;;;;25.76;38.73;102198.34;4971690;28;45569;-75
2022/09/20 11:24:04;;;;;;;;;4.00;4.00;;;;;25.77;38.85;102183.75;4963687;28;45451;-75
2022/09/20 11:26:30;;;;;;;;;4.33;4.33;;;;;25.78;39.26;102186.31;4972310;28;46217;-75
2022/09/20 11:29:03;;;;;;;;;3.00;3.00;;;;;25.79;38.87;102192.63;4964182;28;47040;-76
2022/09/20 11:31:37;;;;;;;;;2.00;2.00;;;;;25.81;39.19;102195.16;4973363;28;45850;-77
2022/09/20 11:34:15;;;;;;;;;2.33;2.00;;;;;25.79;39.45;102182.59;4971775;28;45386;-74
2022/09/20 11:36:58;;;;;;;;;3.67;3.67;;;;;25.84;39.32;102189.44;4965389;28;46071;-76
2022/09/20 11:39:50;;;;;;;;;6.00;4.00;;;;;25.87;39.18;102189.16;4952873;28;45381;-76
2022/09/20 11:42:25;;;;;;;;;7.00;4.33;;;;;25.91;39.05;102190.53;5015520;28;45394;-73
2022/09/20 11:44:50;;;;;;;;;7.00;4.67;;;;;25.97;38.83;102181.81;5012528;28;45495;-72
2022/09/20 11:47:31;;;;;;;;;4.00;4.00;;;;;25.96;38.55;102181.94;5012851;28;45321;-72
2022/09/20 11:50:15;;;;;;;;;3.00;3.00;;;;;25.98;38.53;102190.81;5015296;28;45427;-73
2022/09/20 11:53:16;;;;;;;;;4.00;3.00;;;;;26.00;38.80;102189.63;5015365;28;45446;-74
2022/09/20 11:55:47;;;;;;;;;3.00;2.33;;;;;26.03;39.28;102189.34;5015070;28;45559;-76
2022/09/20 11:58:21;;;;;;;;;6.33;4.00;;;;;26.07;38.85;102186.34;5014375;28;45686;-74
2022/09/20 12:00:50;;;;;;;;;9.33;5.00;;;;;26.07;38.87;102189.91;5011296;28;45473;-75
2022/09/20 12:03:38;;;;;;;;;5.33;3.00;;;;;26.08;39.34;102174.44;5013032;28;45300;-75
2022/09/20 12:06:25;;;;;;;;;5.00;4.00;;;;;26.10;39.23;102178.72;5014135;28;45507;-75
2022/09/20 12:08:51;;;;;;;;;4.00;2.00;;;;;26.12;39.43;102186.75;5013143;28;46965;-74
2022/09/20 12:11:37;;;;;;;;;3.67;3.33;;;;;26.12;39.26;102178.59;5015388;28;45467;-75
2022/09/20 12:14:27;;;;;;;;;4.00;3.00;;;;;26.15;39.31;102178.25;5014509;28;45511;-75
2022/09/20 12:16:53;;;;;;;;;5.67;3.00;;;;;26.15;39.41;102173.69;5019795;28;45376;-74
2022/09/20 12:19:35;;;;;;;;;3.67;3.67;;;;;26.18;39.47;102177.97;5014726;28;45352;-75
2022/09/20 12:22:00;;;;;;;;;4.33;4.00;;;;;26.18;39.78;102173.38;5015474;28;45377;-77
2022/09/20 12:24:28;;;;;;;;;2.33;2.33;;;;;26.22;39.72;102171.22;5010495;28;45466;-78
2022/09/20 12:27:01;;;;;;;;;3.00;3.00;;;;;26.23;39.51;102172.91;5015295;28;45384;-75
2022/09/20 12:29:28;;;;;;;;;2.00;2.00;;;;;26.20;39.04;102167.81;5013640;28;46376;-78
2022/09/20 12:31:56;;;;;;;;;2.33;2.33;;;;;26.19;39.29;102176.94;5013925;28;45747;-76
2022/09/20 12:34:24;;;;;;;;;2.67;2.67;;;;;26.17;39.79;102168.94;5012520;28;45494;-76
2022/09/20 12:36:52;;;;;;;;;3.67;2.00;;;;;26.14;39.36;102166.53;5015485;28;45352;-76
2022/09/20 12:39:23;;;;;;;;;3.00;3.00;;;;;26.12;39.05;102165.81;5014456;28;46147;-76
2022/09/20 12:41:54;;;;;;;;;4.67;3.33;;;;;26.13;39.38;102164.84;5013527;28;45657;-75
2022/09/20 12:44:39;;;;;;;;;3.67;2.33;;;;;26.16;39.09;102161.78;5013538;28;45419;-75
2022/09/20 12:47:10;;;;;;;;;2.67;1.67;;;;;26.18;38.57;102161.63;5010468;28;47500;-76
2022/09/20 12:52:57;;;;;;;;;6.33;3.67;;;;;26.10;38.98;102165.13;5014320;28;45383;-73
2022/09/20 12:55:33;;;;;;;;;4.33;2.67;;;;;26.04;38.69;102154.84;5010596;28;45512;-75
2022/09/20 12:58:01;;;;;;;;;5.67;2.00;;;;;26.05;38.84;102151.13;5013658;28;45460;-75
2022/09/20 13:00:35;;;;;;;;;3.00;3.00;;;;;26.05;39.18;102156.56;5014844;28;45290;-75
2022/09/20 13:03:22;;;;;;;;;5.00;2.00;;;;;26.08;39.58;102145.38;5011290;28;46891;-76
2022/09/20 13:06:09;;;;;;;;;4.00;3.67;;;;;26.11;39.12;102144.22;5013084;28;45480;-73
2022/09/20 13:08:38;;;;;;;;;3.00;3.00;;;;;26.12;39.45;102144.03;5006529;28;45408;-78
2022/09/20 13:11:06;;;;;;;;;4.33;3.00;;;;;26.12;39.46;102149.50;5014771;28;45431;-78
2022/09/20 13:13:43;;;;;;;;;4.67;3.00;;;;;26.11;39.88;102141.50;5013474;28;45435;-77
2022/09/20 13:16:30;;;;;;;;;2.33;2.00;;;;;26.09;39.63;102141.66;5012499;28;45349;-77
2022/09/20 13:19:04;;;;;;;;;4.00;4.00;;;;;26.10;40.14;102145.22;5014157;28;45368;-77
2022/09/20 13:21:32;;;;;;;;;3.33;3.33;;;;;26.08;40.39;102142.66;5013688;28;45597;-76
2022/09/20 13:23:58;;;;;;;;;3.67;3.00;;;;;26.11;40.29;102136.91;5013710;28;45467;-75
2022/09/20 13:26:32;;;;;;;;;2.00;2.00;;;;;26.12;39.90;102135.03;5011056;28;45486;-74
2022/09/20 13:28:58;;;;;;;;;5.33;2.00;;;;;26.14;39.92;102138.47;5008681;28;45699;-73
2022/09/20 13:31:26;;;;;;;;;5.00;3.33;;;;;26.18;40.39;102134.44;5013572;28;46174;-71
2022/09/20 13:33:52;;;;;;;;;3.33;2.00;;;;;26.23;40.46;102132.09;5012171;28;45341;-72
2022/09/20 13:36:28;;;;;;;;;3.00;3.00;;;;;26.27;40.54;102135.41;5011234;28;45349;-73
2022/09/20 13:38:57;;;;;;;;;3.00;1.33;;;;;26.30;40.03;102133.25;5013468;28;45428;-73
2022/09/20 13:41:28;;;;;;;;;3.67;2.33;;;;;26.33;40.43;102129.34;5004738;28;45767;-72
2022/09/20 13:43:53;;;;;;;;;3.33;3.33;;;;;26.36;39.97;102128.19;5013598;28;45495;-74
2022/09/20 13:46:27;;;;;;;;;1.33;1.33;;;;;26.37;40.36;102130.75;5012042;28;45529;-73
2022/09/20 13:49:22;;;;;;;;;2.00;2.00;;;;;26.37;40.37;102130.75;5009879;28;45753;-75
2022/09/20 13:51:49;;;;;;;;;4.00;2.33;;;;;26.40;39.67;102124.16;5011516;28;45668;-74
2022/09/20 13:54:30;;;;;;;;;2.00;2.00;;;;;26.41;40.32;102125.88;5012772;28;45660;-76
2022/09/20 13:57:00;;;;;;;;;2.33;2.00;;;;;26.40;40.26;102118.72;5027793;28;47046;-75
2022/09/20 13:59:34;;;;;;;;;4.00;2.00;;;;;26.39;40.35;102130.59;5011384;28;45567;-76
2022/09/20 14:02:00;;;;;;;;;2.00;2.00;;;;;26.38;40.55;102118.84;5005236;28;46014;-76
2022/09/20 14:04:29;;;;;;;;;2.00;2.00;;;;;26.41;40.25;102117.69;5017411;28;45378;-76
2022/09/20 14:06:57;;;;;;;;;3.33;3.00;;;;;26.44;40.49;102111.91;5012829;28;45459;-75
2022/09/20 14:09:31;;;;;;;;;1.33;1.33;;;;;26.45;40.48;102102.75;5015406;28;45337;-75
2022/09/20 14:11:58;;;;;;;;;3.00;3.00;;;;;26.47;39.99;102110.75;5011500;28;46221;-75
2022/09/20 14:14:25;;;;;;;;;3.00;2.00;;;;;26.48;40.10;102107.03;5013130;28;47399;-75
2022/09/20 14:16:53;;;;;;;;;2.00;2.00;;;;;26.46;40.08;102101.75;5010364;28;45463;-78
2022/09/20 14:19:22;;;;;;;;;3.00;2.00;;;;;26.47;40.16;102102.59;5011812;28;45705;-78
2022/09/20 14:21:48;;;;;;;;;3.00;3.00;;;;;26.47;40.33;102106.19;5012657;28;47027;-77
2022/09/20 14:24:13;;;;;;;;;2.00;2.00;;;;;26.47;40.38;102099.88;5015966;28;45510;-78
2022/09/20 14:26:41;;;;;;;;;2.00;2.00;;;;;26.47;40.05;102103.44;5013522;28;45439;-78
2022/09/20 14:29:38;;;;;;;;;2.00;2.00;;;;;26.49;40.50;102100.59;5016943;28;45393;-78
2022/09/20 14:32:16;;;;;;;;;2.67;2.67;;;;;26.46;40.16;102092.72;5011758;28;46507;-77
2022/09/20 14:35:03;;;;;;;;;3.00;3.00;;;;;26.48;40.18;102088.81;5014659;28;45436;-79
2022/09/20 14:37:42;;;;;;;;;2.33;2.33;;;;;26.50;40.80;102092.25;5015433;28;45683;-78
2022/09/20 14:40:30;;;;;;;;;2.33;2.33;;;;;26.54;40.85;102095.53;5016312;28;45711;-74
2022/09/20 14:43:04;;;;;;;;;3.00;3.00;;;;;26.53;40.76;102091.94;5006823;28;46578;-75
2022/09/20 14:45:32;;;;;;;;;1.33;1.33;;;;;26.56;40.88;102086.19;5013504;28;45470;-76
2022/09/20 14:48:02;;;;;;;;;4.00;2.00;;;;;26.60;40.31;102089.44;5029297;28;45485;-76
2022/09/20 14:50:29;;;;;;;;;2.33;1.67;;;;;26.62;40.87;102092.00;5015929;28;45467;-76
2022/09/20 14:53:04;;;;;;;;;2.67;1.67;;;;;26.62;40.33;102084.72;5010333;28;46489;-75
2022/09/20 14:55:31;;;;;;;;;1.00;1.00;;;;;26.64;40.62;102076.38;5008194;28;45396;-76
2022/09/20 14:58:15;;;;;;;;;3.00;3.00;;;;;26.65;40.85;102070.75;5015418;28;45336;-76
2022/09/20 15:00:50;;;;;;;;;6.00;3.00;;;;;26.64;41.01;102070.94;5015227;28;45448;-75
2022/09/20 15:03:23;;;;;;;;;4.00;3.00;;;;;26.65;41.18;102069.94;5009663;28;46385;-76
2022/09/20 15:05:49;;;;;;;;;0.67;0.00;;;;;26.68;41.29;102072.31;5015238;28;45757;-75
2022/09/20 15:08:16;;;;;;;;;4.67;3.00;;;;;26.71;39.51;102074.72;5015182;28;45366;-74
2022/09/20 15:10:42;;;;;;;;;2.00;2.00;;;;;26.75;38.79;102069.81;5014480;28;45442;-74
2022/09/20 15:13:10;;;;;;;;;1.33;1.33;;;;;26.77;38.06;102074.09;5012545;28;46166;-72
2022/09/20 15:15:35;;;;;;;;;3.00;2.00;;;;;26.77;38.50;102062.34;5012806;28;45499;-73
2022/09/20 15:18:01;;;;;;;;;3.67;3.00;;;;;26.76;38.06;102069.66;5009600;28;45487;-73
2022/09/20 15:20:27;;;;;;;;;1.00;1.00;;;;;26.77;37.79;102065.09;5011378;28;45649;-72
2022/09/20 15:22:52;;;;;;;;;3.00;2.00;;;;;26.74;37.75;102068.13;5004540;28;46290;-73
2022/09/20 15:25:20;;;;;;;;;2.67;2.33;;;;;26.70;37.95;102068.41;5005428;28;45779;-74
2022/09/20 15:27:46;;;;;;;;;2.00;2.00;;;;;26.64;38.01;102058.16;5010265;28;47083;-77
2022/09/20 15:30:18;;;;;;;;;2.33;2.33;;;;;26.60;38.04;102056.78;5013075;28;45438;-75
2022/09/20 15:32:44;;;;;;;;;3.00;3.00;;;;;26.54;37.71;102061.00;5014582;28;47520;-74
2022/09/20 15:35:12;;;;;;;;;5.33;2.00;;;;;26.52;38.21;102060.28;5008802;28;45437;-76
2022/09/20 15:37:38;;;;;;;;;3.00;3.00;;;;;26.52;37.96;102057.56;5008545;28;45531;-75
2022/09/20 15:40:05;;;;;;;;;5.00;2.00;;;;;26.52;37.99;102059.44;5015897;28;45269;-76
2022/09/20 15:42:30;;;;;;;;;6.00;3.67;;;;;26.49;38.35;102062.47;5014764;28;46181;-76
2022/09/20 15:44:56;;;;;;;;;2.33;1.67;;;;;26.50;37.92;102061.44;5023481;28;45727;-76
2022/09/20 16:07:42;;;;;;;;;2.33;1.33;;;;;24.76;38.05;102063.66;5068311;27;46384;-82
